sensor_id;sensor_type;location;lat;lon;timestamp;temperature;humidity
14585;DHT22;7379;51.506;11.876;2023-08-12T00:01:16;22.50;58.70
14585;DHT22;7379;51.506;11.876;2023-08-12T00:03:45;22.40;58.70
14585;DHT22;7379;51.506;11.876;2023-08-12T00:06:12;22.40;58.70
14585;DHT22;7379;51.506;11.876;2023-08-12T00:08:39;22.40;58.80
14585;DHT22;7379;51.506;11.876;2023-08-12T00:11:05;22.40;58.80
14585;DHT22;7379;51.506;11.876;2023-08-12T00:13:33;22.40;58.90
14585;DHT22;7379;51.506;11.876;2023-08-12T00:16:00;22.40;58.90
14585;DHT22;7379;51.506;11.876;2023-08-12T00:18:27;22.40;58.90
14585;DHT22;7379;51.506;11.876;2023-08-12T00:20:54;22.30;58.80
14585;DHT22;7379;51.506;11.876;2023-08-12T00:23:20;22.30;58.90
14585;DHT22;7379;51.506;11.876;2023-08-12T00:25:49;22.30;58.90
14585;DHT22;7379;51.506;11.876;2023-08-12T00:28:16;22.30;59.00
14585;DHT22;7379;51.506;11.876;2023-08-12T00:30:44;22.30;59.00
14585;DHT22;7379;51.506;11.876;2023-08-12T00:33:10;22.30;59.00
14585;DHT22;7379;51.506;11.876;2023-08-12T00:35:37;22.30;59.10
14585;DHT22;7379;51.506;11.876;2023-08-12T00:38:04;22.30;59.10
14585;DHT22;7379;51.506;11.876;2023-08-12T00:40:30;22.20;59.20
14585;DHT22;7379;51.506;11.876;2023-08-12T00:42:57;22.20;59.20
14585;DHT22;7379;51.506;11.876;2023-08-12T00:45:24;22.20;59.20
14585;DHT22;7379;51.506;11.876;2023-08-12T00:47:52;22.20;59.30
14585;DHT22;7379;51.506;11.876;2023-08-12T00:50:19;22.20;59.30
14585;DHT22;7379;51.506;11.876;2023-08-12T00:52:47;22.20;59.40
14585;DHT22;7379;51.506;11.876;2023-08-12T00:55:13;22.20;59.40
14585;DHT22;7379;51.506;11.876;2023-08-12T00:57:40;22.10;59.40
14585;DHT22;7379;51.506;11.876;2023-08-12T01:00:09;22.10;59.40
14585;DHT22;7379;51.506;11.876;2023-08-12T01:02:36;22.10;59.40
14585;DHT22;7379;51.506;11.876;2023-08-12T01:05:04;22.10;59.50
14585;DHT22;7379;51.506;11.876;2023-08-12T01:07:31;22.10;59.60
14585;DHT22;7379;51.506;11.876;2023-08-12T01:09:59;22.10;59.60
14585;DHT22;7379;51.506;11.876;2023-08-12T01:12:29;22.10;59.70
14585;DHT22;7379;51.506;11.876;2023-08-12T01:15:01;22.10;59.70
14585;DHT22;7379;51.506;11.876;2023-08-12T01:17:31;22.00;59.60
14585;DHT22;7379;51.506;11.876;2023-08-12T01:20:02;22.00;59.70
14585;DHT22;7379;51.506;11.876;2023-08-12T01:22:37;22.00;59.70
14585;DHT22;7379;51.506;11.876;2023-08-12T01:25:08;22.00;59.70
14585;DHT22;7379;51.506;11.876;2023-08-12T01:27:35;22.00;59.80
14585;DHT22;7379;51.506;11.876;2023-08-12T01:30:03;22.00;59.90
14585;DHT22;7379;51.506;11.876;2023-08-12T01:32:36;22.00;60.00
14585;DHT22;7379;51.506;11.876;2023-08-12T01:35:09;22.00;61.00
14585;DHT22;7379;51.506;11.876;2023-08-12T01:37:39;21.90;60.20
14585;DHT22;7379;51.506;11.876;2023-08-12T01:40:09;21.90;60.10
14585;DHT22;7379;51.506;11.876;2023-08-12T01:42:39;21.90;60.10
14585;DHT22;7379;51.506;11.876;2023-08-12T01:45:07;21.90;60.00
14585;DHT22;7379;51.506;11.876;2023-08-12T01:47:33;21.90;60.20
14585;DHT22;7379;51.506;11.876;2023-08-12T01:50:00;21.90;60.20
14585;DHT22;7379;51.506;11.876;2023-08-12T01:52:27;21.90;60.20
14585;DHT22;7379;51.506;11.876;2023-08-12T01:54:54;21.90;60.30
14585;DHT22;7379;51.506;11.876;2023-08-12T01:57:22;21.80;60.20
14585;DHT22;7379;51.506;11.876;2023-08-12T01:59:51;21.80;60.30
14585;DHT22;7379;51.506;11.876;2023-08-12T02:02:18;21.80;60.30
14585;DHT22;7379;51.506;11.876;2023-08-12T02:04:44;21.80;60.30
14585;DHT22;7379;51.506;11.876;2023-08-12T02:07:11;21.80;60.40
14585;DHT22;7379;51.506;11.876;2023-08-12T02:09:38;21.80;60.50
14585;DHT22;7379;51.506;11.876;2023-08-12T02:12:06;21.80;60.50
14585;DHT22;7379;51.506;11.876;2023-08-12T02:14:34;21.80;60.50
14585;DHT22;7379;51.506;11.876;2023-08-12T02:17:01;21.80;60.60
14585;DHT22;7379;51.506;11.876;2023-08-12T02:19:31;21.70;60.60
14585;DHT22;7379;51.506;11.876;2023-08-12T02:21:58;21.70;60.60
14585;DHT22;7379;51.506;11.876;2023-08-12T02:24:24;21.70;60.70
14585;DHT22;7379;51.506;11.876;2023-08-12T02:26:51;21.70;60.70
14585;DHT22;7379;51.506;11.876;2023-08-12T02:29:18;21.70;60.80
14585;DHT22;7379;51.506;11.876;2023-08-12T02:31:46;21.70;60.80
14585;DHT22;7379;51.506;11.876;2023-08-12T02:34:13;21.70;60.90
14585;DHT22;7379;51.506;11.876;2023-08-12T02:36:39;21.70;61.00
14585;DHT22;7379;51.506;11.876;2023-08-12T02:39:06;21.70;61.00
14585;DHT22;7379;51.506;11.876;2023-08-12T02:41:33;21.60;60.90
14585;DHT22;7379;51.506;11.876;2023-08-12T02:43:59;21.60;61.00
14585;DHT22;7379;51.506;11.876;2023-08-12T02:46:26;21.60;61.00
14585;DHT22;7379;51.506;11.876;2023-08-12T02:48:54;21.60;61.10
14585;DHT22;7379;51.506;11.876;2023-08-12T02:51:21;21.60;61.10
14585;DHT22;7379;51.506;11.876;2023-08-12T02:53:47;21.60;61.20
14585;DHT22;7379;51.506;11.876;2023-08-12T02:56:14;21.60;61.20
14585;DHT22;7379;51.506;11.876;2023-08-12T02:58:41;21.50;61.20
14585;DHT22;7379;51.506;11.876;2023-08-12T03:01:08;21.50;61.20
14585;DHT22;7379;51.506;11.876;2023-08-12T03:03:34;21.50;61.30
14585;DHT22;7379;51.506;11.876;2023-08-12T03:06:02;21.50;61.40
14585;DHT22;7379;51.506;11.876;2023-08-12T03:08:29;21.50;61.40
14585;DHT22;7379;51.506;11.876;2023-08-12T03:10:59;21.50;61.50
14585;DHT22;7379;51.506;11.876;2023-08-12T03:13:26;21.50;61.50
14585;DHT22;7379;51.506;11.876;2023-08-12T03:15:53;21.50;61.60
14585;DHT22;7379;51.506;11.876;2023-08-12T03:18:20;21.50;61.60
14585;DHT22;7379;51.506;11.876;2023-08-12T03:20:47;21.50;61.70
14585;DHT22;7379;51.506;11.876;2023-08-12T03:23:15;21.40;61.70
14585;DHT22;7379;51.506;11.876;2023-08-12T03:25:42;21.40;61.70
14585;DHT22;7379;51.506;11.876;2023-08-12T03:28:09;21.40;61.80
14585;DHT22;7379;51.506;11.876;2023-08-12T03:30:35;21.40;61.80
14585;DHT22;7379;51.506;11.876;2023-08-12T03:33:02;21.40;61.90
14585;DHT22;7379;51.506;11.876;2023-08-12T03:35:29;21.40;61.90
14585;DHT22;7379;51.506;11.876;2023-08-12T03:37:56;21.40;62.00
14585;DHT22;7379;51.506;11.876;2023-08-12T03:40:24;21.40;62.00
14585;DHT22;7379;51.506;11.876;2023-08-12T03:42:51;21.40;62.10
14585;DHT22;7379;51.506;11.876;2023-08-12T03:45:18;21.30;62.00
14585;DHT22;7379;51.506;11.876;2023-08-12T03:47:44;21.30;62.00
14585;DHT22;7379;51.506;11.876;2023-08-12T03:50:11;21.30;62.10
14585;DHT22;7379;51.506;11.876;2023-08-12T03:52:38;21.30;62.90
14585;DHT22;7379;51.506;11.876;2023-08-12T03:55:06;21.30;62.20
14585;DHT22;7379;51.506;11.876;2023-08-12T03:57:34;21.30;62.20
14585;DHT22;7379;51.506;11.876;2023-08-12T04:00:01;21.30;62.30
14585;DHT22;7379;51.506;11.876;2023-08-12T04:02:28;21.30;62.30
14585;DHT22;7379;51.506;11.876;2023-08-12T04:04:55;21.30;62.40
14585;DHT22;7379;51.506;11.876;2023-08-12T04:07:22;21.30;62.40
14585;DHT22;7379;51.506;11.876;2023-08-12T04:09:49;21.30;62.50
14585;DHT22;7379;51.506;11.876;2023-08-12T04:12:16;21.20;62.50
14585;DHT22;7379;51.506;11.876;2023-08-12T04:14:44;21.20;62.50
14585;DHT22;7379;51.506;11.876;2023-08-12T04:17:11;21.20;62.50
14585;DHT22;7379;51.506;11.876;2023-08-12T04:19:37;21.20;62.60
14585;DHT22;7379;51.506;11.876;2023-08-12T04:22:04;21.20;62.60
14585;DHT22;7379;51.506;11.876;2023-08-12T04:24:31;21.20;62.70
14585;DHT22;7379;51.506;11.876;2023-08-12T04:26:58;21.20;62.70
14585;DHT22;7379;51.506;11.876;2023-08-12T04:29:24;21.20;62.80
14585;DHT22;7379;51.506;11.876;2023-08-12T04:31:52;21.20;62.90
14585;DHT22;7379;51.506;11.876;2023-08-12T04:34:19;21.10;62.80
14585;DHT22;7379;51.506;11.876;2023-08-12T04:36:46;21.10;62.90
14585;DHT22;7379;51.506;11.876;2023-08-12T04:39:13;21.10;62.90
14585;DHT22;7379;51.506;11.876;2023-08-12T04:41:39;21.10;62.90
14585;DHT22;7379;51.506;11.876;2023-08-12T04:44:06;21.10;63.00
14585;DHT22;7379;51.506;11.876;2023-08-12T04:46:33;21.10;63.10
14585;DHT22;7379;51.506;11.876;2023-08-12T04:49:01;21.10;63.10
14585;DHT22;7379;51.506;11.876;2023-08-12T04:51:28;21.10;63.20
14585;DHT22;7379;51.506;11.876;2023-08-12T04:53:54;21.10;63.20
14585;DHT22;7379;51.506;11.876;2023-08-12T04:56:21;21.10;63.20
14585;DHT22;7379;51.506;11.876;2023-08-12T04:58:49;21.10;63.30
14585;DHT22;7379;51.506;11.876;2023-08-12T05:01:16;21.10;63.30
14585;DHT22;7379;51.506;11.876;2023-08-12T05:03:43;21.10;63.40
14585;DHT22;7379;51.506;11.876;2023-08-12T05:06:11;21.00;63.20
14585;DHT22;7379;51.506;11.876;2023-08-12T05:08:37;21.00;63.20
14585;DHT22;7379;51.506;11.876;2023-08-12T05:11:04;21.10;63.40
14585;DHT22;7379;51.506;11.876;2023-08-12T05:13:31;21.10;63.40
14585;DHT22;7379;51.506;11.876;2023-08-12T05:15:57;21.00;63.30
14585;DHT22;7379;51.506;11.876;2023-08-12T05:18:24;21.00;64.10
14585;DHT22;7379;51.506;11.876;2023-08-12T05:20:52;21.00;63.40
14585;DHT22;7379;51.506;11.876;2023-08-12T05:23:21;21.00;63.40
14585;DHT22;7379;51.506;11.876;2023-08-12T05:25:48;21.00;63.40
14585;DHT22;7379;51.506;11.876;2023-08-12T05:28:15;21.00;63.50
14585;DHT22;7379;51.506;11.876;2023-08-12T05:30:41;21.00;63.50
14585;DHT22;7379;51.506;11.876;2023-08-12T05:33:08;21.00;63.60
14585;DHT22;7379;51.506;11.876;2023-08-12T05:35:35;21.00;63.60
14585;DHT22;7379;51.506;11.876;2023-08-12T05:38:02;21.00;63.60
14585;DHT22;7379;51.506;11.876;2023-08-12T05:40:30;21.00;63.60
14585;DHT22;7379;51.506;11.876;2023-08-12T05:42:56;21.00;63.70
14585;DHT22;7379;51.506;11.876;2023-08-12T05:45:23;21.00;63.70
14585;DHT22;7379;51.506;11.876;2023-08-12T05:47:50;21.00;63.70
14585;DHT22;7379;51.506;11.876;2023-08-12T05:50:17;21.00;63.80
14585;DHT22;7379;51.506;11.876;2023-08-12T05:52:43;21.00;63.80
14585;DHT22;7379;51.506;11.876;2023-08-12T05:55:10;21.00;63.80
14585;DHT22;7379;51.506;11.876;2023-08-12T05:57:38;20.90;63.70
14585;DHT22;7379;51.506;11.876;2023-08-12T06:00:06;21.00;63.80
14585;DHT22;7379;51.506;11.876;2023-08-12T06:02:33;21.00;63.80
14585;DHT22;7379;51.506;11.876;2023-08-12T06:05:00;21.00;63.80
14585;DHT22;7379;51.506;11.876;2023-08-12T06:07:26;21.00;63.80
14585;DHT22;7379;51.506;11.876;2023-08-12T06:09:53;21.00;63.80
14585;DHT22;7379;51.506;11.876;2023-08-12T06:12:20;21.00;63.80
14585;DHT22;7379;51.506;11.876;2023-08-12T06:14:48;21.00;63.90
14585;DHT22;7379;51.506;11.876;2023-08-12T06:17:15;21.00;64.00
14585;DHT22;7379;51.506;11.876;2023-08-12T06:19:41;21.00;64.10
14585;DHT22;7379;51.506;11.876;2023-08-12T06:22:08;21.00;64.10
14585;DHT22;7379;51.506;11.876;2023-08-12T06:24:35;21.00;64.30
14585;DHT22;7379;51.506;11.876;2023-08-12T06:27:01;21.00;64.50
14585;DHT22;7379;51.506;11.876;2023-08-12T06:29:28;21.00;64.80
14585;DHT22;7379;51.506;11.876;2023-08-12T06:31:57;21.00;65.20
14585;DHT22;7379;51.506;11.876;2023-08-12T06:34:23;21.00;65.30
14585;DHT22;7379;51.506;11.876;2023-08-12T06:36:50;21.00;65.30
14585;DHT22;7379;51.506;11.876;2023-08-12T06:39:17;21.00;66.10
14585;DHT22;7379;51.506;11.876;2023-08-12T06:41:43;21.00;66.00
14585;DHT22;7379;51.506;11.876;2023-08-12T06:44:10;21.00;66.20
14585;DHT22;7379;51.506;11.876;2023-08-12T06:46:37;21.00;66.00
14585;DHT22;7379;51.506;11.876;2023-08-12T06:49:05;21.00;65.70
14585;DHT22;7379;51.506;11.876;2023-08-12T06:51:32;21.00;66.50
14585;DHT22;7379;51.506;11.876;2023-08-12T06:53:59;21.00;67.00
14585;DHT22;7379;51.506;11.876;2023-08-12T06:56:25;21.00;65.80
14585;DHT22;7379;51.506;11.876;2023-08-12T06:58:52;21.00;65.80
14585;DHT22;7379;51.506;11.876;2023-08-12T07:01:19;21.00;66.00
14585;DHT22;7379;51.506;11.876;2023-08-12T07:03:46;21.00;66.00
14585;DHT22;7379;51.506;11.876;2023-08-12T07:06:14;21.00;66.80
14585;DHT22;7379;51.506;11.876;2023-08-12T07:08:41;21.00;67.70
14585;DHT22;7379;51.506;11.876;2023-08-12T07:11:08;21.00;67.60
14585;DHT22;7379;51.506;11.876;2023-08-12T07:13:34;21.00;67.20
14585;DHT22;7379;51.506;11.876;2023-08-12T07:16:01;21.00;67.50
14585;DHT22;7379;51.506;11.876;2023-08-12T07:18:28;21.00;67.60
14585;DHT22;7379;51.506;11.876;2023-08-12T07:20:55;21.00;67.60
14585;DHT22;7379;51.506;11.876;2023-08-12T07:23:25;21.00;67.60
14585;DHT22;7379;51.506;11.876;2023-08-12T07:25:51;21.00;67.70
14585;DHT22;7379;51.506;11.876;2023-08-12T07:28:18;21.00;68.40
14585;DHT22;7379;51.506;11.876;2023-08-12T07:30:45;21.00;68.30
14585;DHT22;7379;51.506;11.876;2023-08-12T07:33:12;21.10;67.20
14585;DHT22;7379;51.506;11.876;2023-08-12T07:35:38;21.10;67.00
14585;DHT22;7379;51.506;11.876;2023-08-12T07:38:05;21.10;67.00
14585;DHT22;7379;51.506;11.876;2023-08-12T07:40:33;21.10;66.90
14585;DHT22;7379;51.506;11.876;2023-08-12T07:43:00;21.10;66.80
14585;DHT22;7379;51.506;11.876;2023-08-12T07:45:27;21.10;67.00
14585;DHT22;7379;51.506;11.876;2023-08-12T07:47:54;21.00;66.90
14585;DHT22;7379;51.506;11.876;2023-08-12T07:50:20;21.10;66.90
14585;DHT22;7379;51.506;11.876;2023-08-12T07:52:47;21.10;66.80
14585;DHT22;7379;51.506;11.876;2023-08-12T07:55:14;21.00;66.70
14585;DHT22;7379;51.506;11.876;2023-08-12T07:57:42;21.00;66.60
14585;DHT22;7379;51.506;11.876;2023-08-12T08:00:09;21.00;66.60
14585;DHT22;7379;51.506;11.876;2023-08-12T08:02:37;21.00;66.90
14585;DHT22;7379;51.506;11.876;2023-08-12T08:05:05;21.00;67.20
14585;DHT22;7379;51.506;11.876;2023-08-12T08:07:32;21.00;67.60
14585;DHT22;7379;51.506;11.876;2023-08-12T08:09:58;21.10;67.60
14585;DHT22;7379;51.506;11.876;2023-08-12T08:12:25;21.00;67.90
14585;DHT22;7379;51.506;11.876;2023-08-12T08:14:53;21.10;68.50
14585;DHT22;7379;51.506;11.876;2023-08-12T08:17:20;21.10;69.00
14585;DHT22;7379;51.506;11.876;2023-08-12T08:19:46;21.10;69.10
14585;DHT22;7379;51.506;11.876;2023-08-12T08:22:13;21.10;69.60
14585;DHT22;7379;51.506;11.876;2023-08-12T08:24:40;21.10;69.50
14585;DHT22;7379;51.506;11.876;2023-08-12T08:27:07;21.10;70.50
14585;DHT22;7379;51.506;11.876;2023-08-12T08:29:33;21.10;71.10
14585;DHT22;7379;51.506;11.876;2023-08-12T08:32:01;21.10;71.30
14585;DHT22;7379;51.506;11.876;2023-08-12T08:34:28;21.10;71.80
14585;DHT22;7379;51.506;11.876;2023-08-12T08:36:55;21.10;73.50
14585;DHT22;7379;51.506;11.876;2023-08-12T08:39:21;21.10;72.90
14585;DHT22;7379;51.506;11.876;2023-08-12T08:41:48;21.10;72.20
14585;DHT22;7379;51.506;11.876;2023-08-12T08:44:15;21.10;70.90
14585;DHT22;7379;51.506;11.876;2023-08-12T08:46:43;21.10;70.30
14585;DHT22;7379;51.506;11.876;2023-08-12T08:49:14;21.10;70.20
14585;DHT22;7379;51.506;11.876;2023-08-12T08:51:42;21.10;70.60
14585;DHT22;7379;51.506;11.876;2023-08-12T08:54:11;21.10;71.40
14585;DHT22;7379;51.506;11.876;2023-08-12T08:56:38;21.10;71.10
14585;DHT22;7379;51.506;11.876;2023-08-12T08:59:05;21.20;71.40
14585;DHT22;7379;51.506;11.876;2023-08-12T09:01:32;21.20;75.60
14585;DHT22;7379;51.506;11.876;2023-08-12T09:03:59;21.20;74.80
14585;DHT22;7379;51.506;11.876;2023-08-12T09:06:28;21.20;72.60
14585;DHT22;7379;51.506;11.876;2023-08-12T09:08:56;21.20;74.10
14585;DHT22;7379;51.506;11.876;2023-08-12T09:11:23;21.20;74.40
14585;DHT22;7379;51.506;11.876;2023-08-12T09:13:50;21.20;73.60
14585;DHT22;7379;51.506;11.876;2023-08-12T09:16:17;21.20;73.40
14585;DHT22;7379;51.506;11.876;2023-08-12T09:18:44;21.30;74.30
14585;DHT22;7379;51.506;11.876;2023-08-12T09:21:11;21.30;74.40
14585;DHT22;7379;51.506;11.876;2023-08-12T09:23:41;21.30;74.60
14585;DHT22;7379;51.506;11.876;2023-08-12T09:26:17;21.30;75.00
14585;DHT22;7379;51.506;11.876;2023-08-12T09:28:45;21.30;74.90
14585;DHT22;7379;51.506;11.876;2023-08-12T09:31:22;21.40;75.70
14585;DHT22;7379;51.506;11.876;2023-08-12T09:33:49;21.40;77.50
14585;DHT22;7379;51.506;11.876;2023-08-12T09:36:16;21.40;78.40
14585;DHT22;7379;51.506;11.876;2023-08-12T09:38:44;21.40;77.70
14585;DHT22;7379;51.506;11.876;2023-08-12T09:41:11;21.40;75.40
14585;DHT22;7379;51.506;11.876;2023-08-12T09:43:40;21.30;74.10
14585;DHT22;7379;51.506;11.876;2023-08-12T09:46:10;21.40;74.00
14585;DHT22;7379;51.506;11.876;2023-08-12T09:48:38;21.30;74.20
14585;DHT22;7379;51.506;11.876;2023-08-12T09:51:04;21.30;74.00
14585;DHT22;7379;51.506;11.876;2023-08-12T09:53:32;21.30;76.90
14585;DHT22;7379;51.506;11.876;2023-08-12T09:56:06;21.30;76.90
14585;DHT22;7379;51.506;11.876;2023-08-12T09:58:33;21.30;76.60
14585;DHT22;7379;51.506;11.876;2023-08-12T10:01:02;21.30;76.60
14585;DHT22;7379;51.506;11.876;2023-08-12T10:03:29;21.30;76.30
14585;DHT22;7379;51.506;11.876;2023-08-12T10:05:57;21.30;74.80
14585;DHT22;7379;51.506;11.876;2023-08-12T10:08:24;21.30;74.70
14585;DHT22;7379;51.506;11.876;2023-08-12T10:10:51;21.30;74.50
14585;DHT22;7379;51.506;11.876;2023-08-12T10:13:21;21.30;73.60
14585;DHT22;7379;51.506;11.876;2023-08-12T10:15:48;21.30;73.60
14585;DHT22;7379;51.506;11.876;2023-08-12T10:18:16;21.30;75.20
14585;DHT22;7379;51.506;11.876;2023-08-12T10:20:44;21.40;75.80
14585;DHT22;7379;51.506;11.876;2023-08-12T10:23:15;21.40;75.70
14585;DHT22;7379;51.506;11.876;2023-08-12T10:25:43;21.40;76.30
14585;DHT22;7379;51.506;11.876;2023-08-12T10:28:11;21.40;76.20
14585;DHT22;7379;51.506;11.876;2023-08-12T10:30:40;21.50;77.80
14585;DHT22;7379;51.506;11.876;2023-08-12T10:33:07;21.50;78.20
14585;DHT22;7379;51.506;11.876;2023-08-12T10:35:44;21.60;77.10
14585;DHT22;7379;51.506;11.876;2023-08-12T10:38:13;21.60;76.70
14585;DHT22;7379;51.506;11.876;2023-08-12T10:40:40;21.70;76.50
14585;DHT22;7379;51.506;11.876;2023-08-12T10:43:07;21.70;76.00
14585;DHT22;7379;51.506;11.876;2023-08-12T10:45:47;21.70;75.50
14585;DHT22;7379;51.506;11.876;2023-08-12T10:48:21;21.80;75.50
14585;DHT22;7379;51.506;11.876;2023-08-12T10:50:49;21.80;75.10
14585;DHT22;7379;51.506;11.876;2023-08-12T10:53:23;21.80;75.60
14585;DHT22;7379;51.506;11.876;2023-08-12T10:55:55;21.90;76.20
14585;DHT22;7379;51.506;11.876;2023-08-12T10:58:27;21.90;75.00
14585;DHT22;7379;51.506;11.876;2023-08-12T11:00:57;22.00;75.30
14585;DHT22;7379;51.506;11.876;2023-08-12T11:03:25;22.10;74.70
14585;DHT22;7379;51.506;11.876;2023-08-12T11:05:53;22.20;72.80
14585;DHT22;7379;51.506;11.876;2023-08-12T11:08:26;22.30;72.50
14585;DHT22;7379;51.506;11.876;2023-08-12T11:10:55;22.30;72.10
14585;DHT22;7379;51.506;11.876;2023-08-12T11:13:22;22.40;72.60
14585;DHT22;7379;51.506;11.876;2023-08-12T11:15:50;22.40;72.10
14585;DHT22;7379;51.506;11.876;2023-08-12T11:18:19;22.40;73.20
14585;DHT22;7379;51.506;11.876;2023-08-12T11:20:48;22.50;72.70
14585;DHT22;7379;51.506;11.876;2023-08-12T11:23:16;22.50;72.50
14585;DHT22;7379;51.506;11.876;2023-08-12T11:25:44;22.50;72.10
14585;DHT22;7379;51.506;11.876;2023-08-12T11:28:11;22.50;72.30
14585;DHT22;7379;51.506;11.876;2023-08-12T11:30:40;22.50;71.80
14585;DHT22;7379;51.506;11.876;2023-08-12T11:33:07;22.50;71.80
14585;DHT22;7379;51.506;11.876;2023-08-12T11:35:37;22.50;72.90
14585;DHT22;7379;51.506;11.876;2023-08-12T11:38:05;22.50;72.70
14585;DHT22;7379;51.506;11.876;2023-08-12T11:40:32;22.50;71.60
14585;DHT22;7379;51.506;11.876;2023-08-12T11:42:59;22.60;71.40
14585;DHT22;7379;51.506;11.876;2023-08-12T11:45:26;22.60;71.20
14585;DHT22;7379;51.506;11.876;2023-08-12T11:47:54;22.60;70.90
14585;DHT22;7379;51.506;11.876;2023-08-12T11:50:22;22.70;71.20
14585;DHT22;7379;51.506;11.876;2023-08-12T11:52:51;22.80;70.60
14585;DHT22;7379;51.506;11.876;2023-08-12T11:55:18;22.80;70.40
14585;DHT22;7379;51.506;11.876;2023-08-12T11:57:45;22.80;70.70
14585;DHT22;7379;51.506;11.876;2023-08-12T12:00:13;22.90;70.50
14585;DHT22;7379;51.506;11.876;2023-08-12T12:02:41;22.90;70.10
14585;DHT22;7379;51.506;11.876;2023-08-12T12:05:11;22.90;69.70
14585;DHT22;7379;51.506;11.876;2023-08-12T12:07:39;22.90;69.70
14585;DHT22;7379;51.506;11.876;2023-08-12T12:10:08;23.00;69.80
14585;DHT22;7379;51.506;11.876;2023-08-12T12:12:35;23.00;69.00
14585;DHT22;7379;51.506;11.876;2023-08-12T12:15:03;23.00;68.50
14585;DHT22;7379;51.506;11.876;2023-08-12T12:17:30;23.00;68.60
14585;DHT22;7379;51.506;11.876;2023-08-12T12:19:59;23.00;69.10
14585;DHT22;7379;51.506;11.876;2023-08-12T12:22:27;23.10;69.00
14585;DHT22;7379;51.506;11.876;2023-08-12T12:24:58;23.10;68.80
14585;DHT22;7379;51.506;11.876;2023-08-12T12:27:26;23.30;68.70
14585;DHT22;7379;51.506;11.876;2023-08-12T12:29:53;23.30;68.50
14585;DHT22;7379;51.506;11.876;2023-08-12T12:32:20;23.40;67.70
14585;DHT22;7379;51.506;11.876;2023-08-12T12:34:47;23.50;67.40
14585;DHT22;7379;51.506;11.876;2023-08-12T12:37:14;23.50;67.30
14585;DHT22;7379;51.506;11.876;2023-08-12T12:39:41;23.50;67.50
14585;DHT22;7379;51.506;11.876;2023-08-12T12:42:08;23.60;66.90
14585;DHT22;7379;51.506;11.876;2023-08-12T12:44:36;23.60;67.10
14585;DHT22;7379;51.506;11.876;2023-08-12T12:47:03;23.60;67.10
14585;DHT22;7379;51.506;11.876;2023-08-12T12:49:30;23.50;67.60
14585;DHT22;7379;51.506;11.876;2023-08-12T12:51:57;23.60;68.90
14585;DHT22;7379;51.506;11.876;2023-08-12T12:54:24;23.60;68.50
14585;DHT22;7379;51.506;11.876;2023-08-12T12:56:50;23.60;67.70
14585;DHT22;7379;51.506;11.876;2023-08-12T12:59:17;23.90;66.80
14585;DHT22;7379;51.506;11.876;2023-08-12T13:01:45;24.10;66.40
14585;DHT22;7379;51.506;11.876;2023-08-12T13:04:12;24.10;66.80
14585;DHT22;7379;51.506;11.876;2023-08-12T13:06:39;24.20;66.10
14585;DHT22;7379;51.506;11.876;2023-08-12T13:09:05;24.30;65.90
14585;DHT22;7379;51.506;11.876;2023-08-12T13:11:33;24.30;65.60
14585;DHT22;7379;51.506;11.876;2023-08-12T13:14:00;24.30;66.50
14585;DHT22;7379;51.506;11.876;2023-08-12T13:16:27;24.30;66.10
14585;DHT22;7379;51.506;11.876;2023-08-12T13:18:55;24.30;66.60
14585;DHT22;7379;51.506;11.876;2023-08-12T13:21:23;24.30;66.00
14585;DHT22;7379;51.506;11.876;2023-08-12T13:23:50;24.30;66.50
14585;DHT22;7379;51.506;11.876;2023-08-12T13:26:17;24.30;65.90
14585;DHT22;7379;51.506;11.876;2023-08-12T13:28:44;24.40;65.70
14585;DHT22;7379;51.506;11.876;2023-08-12T13:31:11;24.30;66.20
14585;DHT22;7379;51.506;11.876;2023-08-12T13:33:38;24.20;66.20
14585;DHT22;7379;51.506;11.876;2023-08-12T13:36:06;24.20;66.70
14585;DHT22;7379;51.506;11.876;2023-08-12T13:38:32;24.30;66.90
14585;DHT22;7379;51.506;11.876;2023-08-12T13:40:59;24.30;66.40
14585;DHT22;7379;51.506;11.876;2023-08-12T13:43:26;24.20;66.40
14585;DHT22;7379;51.506;11.876;2023-08-12T13:45:53;24.20;67.00
14585;DHT22;7379;51.506;11.876;2023-08-12T13:48:19;24.40;66.20
14585;DHT22;7379;51.506;11.876;2023-08-12T13:50:46;24.40;66.30
14585;DHT22;7379;51.506;11.876;2023-08-12T13:53:16;24.70;65.80
14585;DHT22;7379;51.506;11.876;2023-08-12T13:55:43;24.80;65.30
14585;DHT22;7379;51.506;11.876;2023-08-12T13:58:09;25.10;64.10
14585;DHT22;7379;51.506;11.876;2023-08-12T14:00:36;25.30;63.70
14585;DHT22;7379;51.506;11.876;2023-08-12T14:03:03;25.40;63.20
14585;DHT22;7379;51.506;11.876;2023-08-12T14:05:30;25.50;62.90
14585;DHT22;7379;51.506;11.876;2023-08-12T14:07:57;25.50;62.70
14585;DHT22;7379;51.506;11.876;2023-08-12T14:10:25;25.40;62.50
14585;DHT22;7379;51.506;11.876;2023-08-12T14:12:52;25.40;62.60
14585;DHT22;7379;51.506;11.876;2023-08-12T14:15:19;25.40;62.80
14585;DHT22;7379;51.506;11.876;2023-08-12T14:17:46;25.30;63.70
14585;DHT22;7379;51.506;11.876;2023-08-12T14:20:12;25.30;63.40
14585;DHT22;7379;51.506;11.876;2023-08-12T14:22:41;25.20;63.50
14585;DHT22;7379;51.506;11.876;2023-08-12T14:25:09;25.10;63.90
14585;DHT22;7379;51.506;11.876;2023-08-12T14:27:37;25.00;64.30
14585;DHT22;7379;51.506;11.876;2023-08-12T14:30:05;24.90;64.70
14585;DHT22;7379;51.506;11.876;2023-08-12T14:32:32;24.90;65.00
14585;DHT22;7379;51.506;11.876;2023-08-12T14:34:59;24.80;65.10
14585;DHT22;7379;51.506;11.876;2023-08-12T14:37:26;24.80;65.40
14585;DHT22;7379;51.506;11.876;2023-08-12T14:39:53;24.80;65.50
14585;DHT22;7379;51.506;11.876;2023-08-12T14:42:20;24.80;65.60
14585;DHT22;7379;51.506;11.876;2023-08-12T14:44:48;24.70;65.80
14585;DHT22;7379;51.506;11.876;2023-08-12T14:47:15;24.70;65.90
14585;DHT22;7379;51.506;11.876;2023-08-12T14:49:42;24.70;65.80
14585;DHT22;7379;51.506;11.876;2023-08-12T14:52:15;24.70;66.00
14585;DHT22;7379;51.506;11.876;2023-08-12T14:54:42;24.70;66.00
14585;DHT22;7379;51.506;11.876;2023-08-12T14:57:09;24.70;66.10
14585;DHT22;7379;51.506;11.876;2023-08-12T14:59:35;24.70;66.10
14585;DHT22;7379;51.506;11.876;2023-08-12T15:02:04;24.70;66.10
14585;DHT22;7379;51.506;11.876;2023-08-12T15:04:31;24.70;66.20
14585;DHT22;7379;51.506;11.876;2023-08-12T15:06:58;24.70;66.10
14585;DHT22;7379;51.506;11.876;2023-08-12T15:09:25;24.70;66.30
14585;DHT22;7379;51.506;11.876;2023-08-12T15:11:51;24.70;66.40
14585;DHT22;7379;51.506;11.876;2023-08-12T15:14:18;24.70;66.20
14585;DHT22;7379;51.506;11.876;2023-08-12T15:16:45;24.70;66.20
14585;DHT22;7379;51.506;11.876;2023-08-12T15:19:13;24.70;66.40
14585;DHT22;7379;51.506;11.876;2023-08-12T15:21:39;24.60;66.30
14585;DHT22;7379;51.506;11.876;2023-08-12T15:24:06;24.60;66.50
14585;DHT22;7379;51.506;11.876;2023-08-12T15:26:33;24.60;66.70
14585;DHT22;7379;51.506;11.876;2023-08-12T15:29:00;24.60;66.80
14585;DHT22;7379;51.506;11.876;2023-08-12T15:31:27;24.60;66.70